sensor_id;sensor_type;location;lat;lon;timestamp;pressure;altitude;pressure_sealevel;temperature;humidity
21869;BME280;11099;41.564;23.296;2023-04-27T00:00:11;97210.84;;;11.17;75.44
21869;BME280;11099;41.564;23.296;2023-04-27T00:02:37;97109.25;;;10.63;76.02
21869;BME280;11099;41.564;23.296;2023-04-27T00:05:03;97158.25;;;10.79;77.41
21869;BME280;11099;41.564;23.296;2023-04-27T00:07:30;97116.66;;;10.40;80.23
21869;BME280;11099;41.564;23.296;2023-04-27T00:09:56;97215.19;;;11.30;76.29
21869;BME280;11099;41.564;23.296;2023-04-27T00:12:22;97104.56;;;10.69;73.24
21869;BME280;11099;41.564;23.296;2023-04-27T00:14:47;97187.03;;;11.12;72.39
21869;BME280;11099;41.564;23.296;2023-04-27T00:17:13;97157.56;;;11.08;71.59
21869;BME280;11099;41.564;23.296;2023-04-27T00:19:38;97128.81;;;10.76;72.56
21869;BME280;11099;41.564;23.296;2023-04-27T00:22:06;97204.41;;;11.18;72.60
21869;BME280;11099;41.564;23.296;2023-04-27T00:24:32;97214.94;;;10.97;72.44
21869;BME280;11099;41.564;23.296;2023-04-27T00:26:57;97120.84;;;10.67;71.34
21869;BME280;11099;41.564;23.296;2023-04-27T00:29:23;97113.81;;;10.45;70.67
21869;BME280;11099;41.564;23.296;2023-04-27T00:31:48;97093.00;;;10.56;70.70
21869;BME280;11099;41.564;23.296;2023-04-27T00:34:13;97015.25;;;9.90;70.37
21869;BME280;11099;41.564;23.296;2023-04-27T00:36:39;97202.72;;;11.05;71.23
21869;BME280;11099;41.564;23.296;2023-04-27T00:39:04;97108.94;;;10.21;71.82
21869;BME280;11099;41.564;23.296;2023-04-27T00:41:31;97202.91;;;10.82;71.71
21869;BME280;11099;41.564;23.296;2023-04-27T00:43:57;97217.28;;;11.07;70.85
21869;BME280;11099;41.564;23.296;2023-04-27T00:46:23;97128.22;;;10.36;70.53
21869;BME280;11099;41.564;23.296;2023-04-27T00:48:49;97122.88;;;10.18;70.23
21869;BME280;11099;41.564;23.296;2023-04-27T00:51:14;97062.00;;;9.91;70.02
21869;BME280;11099;41.564;23.296;2023-04-27T00:53:41;97185.97;;;10.52;70.75
21869;BME280;11099;41.564;23.296;2023-04-27T00:56:07;97165.94;;;10.46;70.20
21869;BME280;11099;41.564;23.296;2023-04-27T00:58:32;97205.53;;;10.91;70.04
21869;BME280;11099;41.564;23.296;2023-04-27T01:00:59;97225.59;;;10.89;69.32
21869;BME280;11099;41.564;23.296;2023-04-27T01:03:25;97223.84;;;10.93;68.04
21869;BME280;11099;41.564;23.296;2023-04-27T01:05:51;97159.81;;;10.54;67.96
21869;BME280;11099;41.564;23.296;2023-04-27T01:08:16;97175.34;;;10.44;68.35
21869;BME280;11099;41.564;23.296;2023-04-27T01:10:42;97138.72;;;10.23;67.61
21869;BME280;11099;41.564;23.296;2023-04-27T01:13:08;97177.81;;;10.23;69.04
21869;BME280;11099;41.564;23.296;2023-04-27T01:15:33;97138.69;;;10.32;68.04
21869;BME280;11099;41.564;23.296;2023-04-27T01:18:00;97223.88;;;10.75;68.41
21869;BME280;11099;41.564;23.296;2023-04-27T01:20:26;97129.41;;;10.03;68.02
21869;BME280;11099;41.564;23.296;2023-04-27T01:22:55;97080.38;;;9.53;68.85
21869;BME280;11099;41.564;23.296;2023-04-27T01:25:21;97079.03;;;9.72;68.48
21869;BME280;11099;41.564;23.296;2023-04-27T01:27:46;97228.44;;;10.66;67.98
21869;BME280;11099;41.564;23.296;2023-04-27T01:30:12;97184.81;;;10.19;68.13
21869;BME280;11099;41.564;23.296;2023-04-27T01:32:38;97163.19;;;10.03;67.63
21869;BME280;11099;41.564;23.296;2023-04-27T01:35:05;97216.53;;;10.55;66.76
21869;BME280;11099;41.564;23.296;2023-04-27T01:37:31;97185.34;;;10.38;67.45
21869;BME280;11099;41.564;23.296;2023-04-27T01:39:57;97102.28;;;9.58;66.71
21869;BME280;11099;41.564;23.296;2023-04-27T01:42:22;97143.63;;;9.90;67.66
21869;BME280;11099;41.564;23.296;2023-04-27T01:44:48;97067.84;;;9.44;66.50
21869;BME280;11099;41.564;23.296;2023-04-27T01:47:14;97115.78;;;9.79;67.58
21869;BME280;11099;41.564;23.296;2023-04-27T01:49:41;97156.97;;;10.16;66.68
21869;BME280;11099;41.564;23.296;2023-04-27T01:52:07;97171.69;;;10.14;67.00
21869;BME280;11099;41.564;23.296;2023-04-27T01:54:32;97246.34;;;10.26;66.21
21869;BME280;11099;41.564;23.296;2023-04-27T01:56:58;97227.91;;;10.29;66.81
21869;BME280;11099;41.564;23.296;2023-04-27T01:59:23;97212.03;;;10.07;66.63
21869;BME280;11099;41.564;23.296;2023-04-27T02:01:49;97208.59;;;10.07;67.18
21869;BME280;11099;41.564;23.296;2023-04-27T02:04:14;97176.41;;;9.68;67.86
21869;BME280;11099;41.564;23.296;2023-04-27T02:06:40;97186.69;;;10.01;66.59
21869;BME280;11099;41.564;23.296;2023-04-27T02:09:05;97185.81;;;9.83;66.43
21869;BME280;11099;41.564;23.296;2023-04-27T02:11:31;97203.00;;;9.68;67.19
21869;BME280;11099;41.564;23.296;2023-04-27T02:13:57;97198.19;;;9.88;66.69
21869;BME280;11099;41.564;23.296;2023-04-27T02:16:22;97227.94;;;9.90;67.46
21869;BME280;11099;41.564;23.296;2023-04-27T02:18:48;97278.03;;;10.05;67.39
21869;BME280;11099;41.564;23.296;2023-04-27T02:21:13;97197.69;;;9.77;65.87
21869;BME280;11099;41.564;23.296;2023-04-27T02:23:39;97277.09;;;10.01;67.31
21869;BME280;11099;41.564;23.296;2023-04-27T02:26:05;97275.34;;;10.27;66.23
21869;BME280;11099;41.564;23.296;2023-04-27T02:28:30;97217.81;;;10.00;65.33
21869;BME280;11099;41.564;23.296;2023-04-27T02:30:57;97191.34;;;9.47;66.96
21869;BME280;11099;41.564;23.296;2023-04-27T02:33:22;97301.34;;;10.08;67.15
21869;BME280;11099;41.564;23.296;2023-04-27T02:35:47;97239.03;;;9.52;67.05
21869;BME280;11099;41.564;23.296;2023-04-27T02:38:13;97228.88;;;9.54;66.33
21869;BME280;11099;41.564;23.296;2023-04-27T02:40:38;97265.94;;;9.99;65.21
21869;BME280;11099;41.564;23.296;2023-04-27T02:43:04;97208.31;;;9.37;66.86
21869;BME280;11099;41.564;23.296;2023-04-27T02:45:29;97218.22;;;9.45;65.24
21869;BME280;11099;41.564;23.296;2023-04-27T02:47:55;97211.50;;;9.48;64.43
21869;BME280;11099;41.564;23.296;2023-04-27T02:50:21;97311.06;;;10.13;64.92
21869;BME280;11099;41.564;23.296;2023-04-27T02:52:46;97229.38;;;9.56;64.91
21869;BME280;11099;41.564;23.296;2023-04-27T02:55:12;97288.59;;;9.88;64.64
21869;BME280;11099;41.564;23.296;2023-04-27T02:57:38;97200.59;;;9.27;65.19
21869;BME280;11099;41.564;23.296;2023-04-27T03:00:05;97233.75;;;9.30;65.90
21869;BME280;11099;41.564;23.296;2023-04-27T03:02:33;97334.19;;;10.03;66.23
21869;BME280;11099;41.564;23.296;2023-04-27T03:04:58;97236.88;;;9.32;65.87
21869;BME280;11099;41.564;23.296;2023-04-27T03:07:24;97278.84;;;9.74;65.63
21869;BME280;11099;41.564;23.296;2023-04-27T03:09:49;97189.97;;;8.96;66.96
21869;BME280;11099;41.564;23.296;2023-04-27T03:12:15;97299.41;;;9.60;66.69
21869;BME280;11099;41.564;23.296;2023-04-27T03:14:40;97312.63;;;9.74;66.83
21869;BME280;11099;41.564;23.296;2023-04-27T03:17:06;97247.16;;;9.02;67.17
21869;BME280;11099;41.564;23.296;2023-04-27T03:19:31;97233.94;;;8.88;67.40
21869;BME280;11099;41.564;23.296;2023-04-27T03:21:57;97317.47;;;9.27;67.50
21869;BME280;11099;41.564;23.296;2023-04-27T03:24:22;97242.19;;;8.87;68.32
21869;BME280;11099;41.564;23.296;2023-04-27T03:26:50;97313.97;;;9.40;67.89
21869;BME280;11099;41.564;23.296;2023-04-27T03:29:16;97260.66;;;9.14;66.83
21869;BME280;11099;41.564;23.296;2023-04-27T03:31:41;97277.25;;;9.42;66.26
21869;BME280;11099;41.564;23.296;2023-04-27T03:34:07;97319.88;;;9.15;67.70
21869;BME280;11099;41.564;23.296;2023-04-27T03:36:32;97360.03;;;9.58;67.44
21869;BME280;11099;41.564;23.296;2023-04-27T03:38:58;97290.34;;;9.16;66.36
21869;BME280;11099;41.564;23.296;2023-04-27T03:41:23;97282.13;;;9.18;66.13
21869;BME280;11099;41.564;23.296;2023-04-27T03:43:49;97340.66;;;9.35;66.08
21869;BME280;11099;41.564;23.296;2023-04-27T03:46:17;97302.38;;;9.14;66.26
21869;BME280;11099;41.564;23.296;2023-04-27T03:48:42;97287.09;;;9.19;66.42
21869;BME280;11099;41.564;23.296;2023-04-27T03:51:08;97285.34;;;9.15;66.00
21869;BME280;11099;41.564;23.296;2023-04-27T03:53:33;97263.44;;;8.87;66.35
21869;BME280;11099;41.564;23.296;2023-04-27T03:56:00;97288.47;;;8.94;66.25
21869;BME280;11099;41.564;23.296;2023-04-27T03:58:26;97310.91;;;9.24;65.81
21869;BME280;11099;41.564;23.296;2023-04-27T04:00:52;97297.97;;;9.32;65.77
21869;BME280;11099;41.564;23.296;2023-04-27T04:03:18;97295.56;;;9.21;65.78
21869;BME280;11099;41.564;23.296;2023-04-27T04:05:44;97341.56;;;9.53;66.21
21869;BME280;11099;41.564;23.296;2023-04-27T04:08:12;97388.81;;;9.56;67.74
21869;BME280;11099;41.564;23.296;2023-04-27T04:10:38;97347.34;;;9.33;66.75
21869;BME280;11099;41.564;23.296;2023-04-27T04:13:03;97329.03;;;9.45;65.92
21869;BME280;11099;41.564;23.296;2023-04-27T04:15:29;97416.09;;;9.70;66.63
21869;BME280;11099;41.564;23.296;2023-04-27T04:17:54;97304.63;;;8.84;66.04
21869;BME280;11099;41.564;23.296;2023-04-27T04:20:20;97337.38;;;9.38;64.92
21869;BME280;11099;41.564;23.296;2023-04-27T04:22:45;97323.44;;;9.33;65.20
21869;BME280;11099;41.564;23.296;2023-04-27T04:25:11;97268.28;;;9.07;65.06
21869;BME280;11099;41.564;23.296;2023-04-27T04:27:37;97384.88;;;9.54;66.02
21869;BME280;11099;41.564;23.296;2023-04-27T04:30:04;97324.97;;;9.25;65.60
21869;BME280;11099;41.564;23.296;2023-04-27T04:32:30;97280.22;;;8.96;65.81
21869;BME280;11099;41.564;23.296;2023-04-27T04:34:56;97389.75;;;9.60;66.37
21869;BME280;11099;41.564;23.296;2023-04-27T04:37:23;97390.38;;;9.57;65.72
21869;BME280;11099;41.564;23.296;2023-04-27T04:39:48;97316.31;;;9.19;65.97
21869;BME280;11099;41.564;23.296;2023-04-27T04:42:14;97419.38;;;9.67;66.92
21869;BME280;11099;41.564;23.296;2023-04-27T04:44:40;97333.03;;;9.20;65.76
21869;BME280;11099;41.564;23.296;2023-04-27T04:47:06;97418.81;;;9.79;66.49
21869;BME280;11099;41.564;23.296;2023-04-27T04:49:34;97451.19;;;9.59;66.45
21869;BME280;11099;41.564;23.296;2023-04-27T04:52:00;97270.00;;;8.53;67.41
21869;BME280;11099;41.564;23.296;2023-04-27T04:54:25;97335.22;;;9.18;66.82
21869;BME280;11099;41.564;23.296;2023-04-27T04:56:52;97391.97;;;9.67;66.55
21869;BME280;11099;41.564;23.296;2023-04-27T04:59:17;97374.13;;;9.22;66.17
21869;BME280;11099;41.564;23.296;2023-04-27T05:01:42;97398.88;;;9.45;67.42
21869;BME280;11099;41.564;23.296;2023-04-27T05:04:08;97321.50;;;9.02;67.47
21869;BME280;11099;41.564;23.296;2023-04-27T05:06:34;97376.50;;;9.24;68.21
21869;BME280;11099;41.564;23.296;2023-04-27T05:08:59;97398.34;;;9.21;68.02
21869;BME280;11099;41.564;23.296;2023-04-27T05:11:25;97319.09;;;8.78;66.89
21869;BME280;11099;41.564;23.296;2023-04-27T05:13:50;97320.63;;;8.93;67.02
21869;BME280;11099;41.564;23.296;2023-04-27T05:16:16;97362.72;;;9.22;66.36
21869;BME280;11099;41.564;23.296;2023-04-27T05:18:41;97406.44;;;9.52;66.23
21869;BME280;11099;41.564;23.296;2023-04-27T05:21:16;97455.94;;;9.84;66.61
21869;BME280;11099;41.564;23.296;2023-04-27T05:23:45;97375.94;;;9.13;65.37
21869;BME280;11099;41.564;23.296;2023-04-27T05:26:15;97426.38;;;9.27;65.88
21869;BME280;11099;41.564;23.296;2023-04-27T05:28:41;97466.72;;;9.88;64.87
21869;BME280;11099;41.564;23.296;2023-04-27T05:31:07;97468.25;;;9.80;64.67
21869;BME280;11099;41.564;23.296;2023-04-27T05:33:32;97379.78;;;9.43;64.48
21869;BME280;11099;41.564;23.296;2023-04-27T05:35:58;97452.41;;;9.75;64.90
21869;BME280;11099;41.564;23.296;2023-04-27T05:38:24;97407.44;;;9.42;65.59
21869;BME280;11099;41.564;23.296;2023-04-27T05:40:54;97429.25;;;9.53;65.01
21869;BME280;11099;41.564;23.296;2023-04-27T05:43:21;97481.47;;;9.94;64.67
21869;BME280;11099;41.564;23.296;2023-04-27T05:45:46;97416.31;;;9.60;63.91
21869;BME280;11099;41.564;23.296;2023-04-27T05:48:11;97403.53;;;9.40;65.54
21869;BME280;11099;41.564;23.296;2023-04-27T05:50:38;97431.94;;;9.75;63.04
21869;BME280;11099;41.564;23.296;2023-04-27T05:53:04;97339.41;;;8.96;64.99
21869;BME280;11099;41.564;23.296;2023-04-27T05:55:30;97485.34;;;9.88;62.49
21869;BME280;11099;41.564;23.296;2023-04-27T05:57:55;97383.53;;;9.42;61.69
21869;BME280;11099;41.564;23.296;2023-04-27T06:00:21;97334.28;;;9.00;61.77
21869;BME280;11099;41.564;23.296;2023-04-27T06:02:47;97406.47;;;9.61;61.26
21869;BME280;11099;41.564;23.296;2023-04-27T06:05:12;97353.56;;;10.26;60.18
21869;BME280;11099;41.564;23.296;2023-04-27T06:07:38;97490.97;;;10.93;58.79
21869;BME280;11099;41.564;23.296;2023-04-27T06:10:04;97425.19;;;10.54;59.11
21869;BME280;11099;41.564;23.296;2023-04-27T06:12:30;97489.56;;;10.96;59.91
21869;BME280;11099;41.564;23.296;2023-04-27T06:14:56;97415.41;;;10.80;57.82
21869;BME280;11099;41.564;23.296;2023-04-27T06:17:22;97449.63;;;10.96;56.92
21869;BME280;11099;41.564;23.296;2023-04-27T06:19:47;97354.66;;;10.74;57.38
21869;BME280;11099;41.564;23.296;2023-04-27T06:22:13;97351.41;;;11.20;56.20
21869;BME280;11099;41.564;23.296;2023-04-27T06:24:38;97377.41;;;12.39;53.00
21869;BME280;11099;41.564;23.296;2023-04-27T06:27:04;97361.19;;;12.15;52.41
21869;BME280;11099;41.564;23.296;2023-04-27T06:29:30;97426.59;;;12.68;53.21
21869;BME280;11099;41.564;23.296;2023-04-27T06:31:55;97410.91;;;12.96;51.32
21869;BME280;11099;41.564;23.296;2023-04-27T06:34:21;97388.72;;;13.04;50.12
21869;BME280;11099;41.564;23.296;2023-04-27T06:36:47;97409.44;;;13.58;48.58
21869;BME280;11099;41.564;23.296;2023-04-27T06:39:12;97397.75;;;13.95;48.56
21869;BME280;11099;41.564;23.296;2023-04-27T06:41:38;97420.31;;;13.74;47.61
21869;BME280;11099;41.564;23.296;2023-04-27T06:44:03;97459.56;;;13.10;50.65
21869;BME280;11099;41.564;23.296;2023-04-27T06:46:29;97448.28;;;13.76;49.96
21869;BME280;11099;41.564;23.296;2023-04-27T06:48:55;97436.06;;;13.87;48.60
21869;BME280;11099;41.564;23.296;2023-04-27T06:51:21;97423.84;;;12.85;50.96
21869;BME280;11099;41.564;23.296;2023-04-27T06:53:46;97405.44;;;13.22;50.43
21869;BME280;11099;41.564;23.296;2023-04-27T06:56:11;97460.72;;;13.01;51.09
21869;BME280;11099;41.564;23.296;2023-04-27T06:58:37;97436.81;;;13.04;51.05
21869;BME280;11099;41.564;23.296;2023-04-27T07:01:03;97390.91;;;13.53;49.06
21869;BME280;11099;41.564;23.296;2023-04-27T07:03:29;97344.59;;;13.19;49.80
21869;BME280;11099;41.564;23.296;2023-04-27T07:05:55;97438.53;;;14.26;49.76
21869;BME280;11099;41.564;23.296;2023-04-27T07:08:23;97473.81;;;14.73;48.19
21869;BME280;11099;41.564;23.296;2023-04-27T07:10:48;97406.50;;;14.17;47.81
21869;BME280;11099;41.564;23.296;2023-04-27T07:13:14;97381.25;;;13.93;48.39
21869;BME280;11099;41.564;23.296;2023-04-27T07:15:40;97371.69;;;14.17;48.09
21869;BME280;11099;41.564;23.296;2023-04-27T07:18:06;97469.53;;;14.47;47.29
21869;BME280;11099;41.564;23.296;2023-04-27T07:20:31;97358.53;;;14.12;46.97
21869;BME280;11099;41.564;23.296;2023-04-27T07:22:57;97333.13;;;13.39;48.78
21869;BME280;11099;41.564;23.296;2023-04-27T07:25:22;97375.47;;;13.70;47.43
21869;BME280;11099;41.564;23.296;2023-04-27T07:27:48;97422.53;;;13.71;49.45
21869;BME280;11099;41.564;23.296;2023-04-27T07:30:13;97332.53;;;13.34;48.55
21869;BME280;11099;41.564;23.296;2023-04-27T07:32:40;97372.34;;;13.06;50.96
21869;BME280;11099;41.564;23.296;2023-04-27T07:35:08;97455.97;;;14.89;47.59
21869;BME280;11099;41.564;23.296;2023-04-27T07:37:35;97460.09;;;14.99;46.19
21869;BME280;11099;41.564;23.296;2023-04-27T07:40:05;97401.00;;;13.68;48.94
21869;BME280;11099;41.564;23.296;2023-04-27T07:42:38;97391.81;;;14.23;48.48
21869;BME280;11099;41.564;23.296;2023-04-27T07:45:07;97430.28;;;13.85;48.34
21869;BME280;11099;41.564;23.296;2023-04-27T07:47:32;97402.25;;;14.16;49.79
21869;BME280;11099;41.564;23.296;2023-04-27T07:49:58;97369.81;;;14.17;48.61
21869;BME280;11099;41.564;23.296;2023-04-27T07:52:24;97376.91;;;14.59;47.86
21869;BME280;11099;41.564;23.296;2023-04-27T07:54:49;97397.09;;;14.93;46.72
21869;BME280;11099;41.564;23.296;2023-04-27T07:57:16;97408.59;;;14.93;45.81
21869;BME280;11099;41.564;23.296;2023-04-27T07:59:42;97408.75;;;15.49;46.04
21869;BME280;11099;41.564;23.296;2023-04-27T08:02:08;97317.63;;;14.85;46.24
21869;BME280;11099;41.564;23.296;2023-04-27T08:04:34;97362.06;;;14.73;47.16
21869;BME280;11099;41.564;23.296;2023-04-27T08:07:00;97377.72;;;15.24;45.36
21869;BME280;11099;41.564;23.296;2023-04-27T08:09:25;97298.16;;;14.88;44.54
21869;BME280;11099;41.564;23.296;2023-04-27T08:11:51;97360.13;;;14.37;46.06
21869;BME280;11099;41.564;23.296;2023-04-27T08:14:17;97426.66;;;15.33;46.07
21869;BME280;11099;41.564;23.296;2023-04-27T08:16:43;97426.94;;;15.56;45.66
21869;BME280;11099;41.564;23.296;2023-04-27T08:19:09;97444.63;;;16.13;46.38
21869;BME280;11099;41.564;23.296;2023-04-27T08:21:36;97353.38;;;15.57;46.90
21869;BME280;11099;41.564;23.296;2023-04-27T08:24:03;97465.34;;;16.13;46.60
21869;BME280;11099;41.564;23.296;2023-04-27T08:26:29;97472.38;;;16.17;45.16
21869;BME280;11099;41.564;23.296;2023-04-27T08:28:54;97469.88;;;15.96;45.69
21869;BME280;11099;41.564;23.296;2023-04-27T08:31:28;97462.69;;;16.28;45.50
21869;BME280;11099;41.564;23.296;2023-04-27T08:33:55;97428.47;;;15.69;44.73
21869;BME280;11099;41.564;23.296;2023-04-27T08:36:22;97468.13;;;15.88;44.00
21869;BME280;11099;41.564;23.296;2023-04-27T08:38:52;97466.78;;;15.94;43.97
21869;BME280;11099;41.564;23.296;2023-04-27T08:41:22;97408.47;;;15.54;43.85
21869;BME280;11099;41.564;23.296;2023-04-27T08:43:49;97385.84;;;15.80;43.68
21869;BME280;11099;41.564;23.296;2023-04-27T08:46:23;97441.75;;;16.66;42.28
21869;BME280;11099;41.564;23.296;2023-04-27T08:48:54;97361.50;;;16.17;43.09
21869;BME280;11099;41.564;23.296;2023-04-27T08:51:20;97453.25;;;16.34;43.00
21869;BME280;11099;41.564;23.296;2023-04-27T08:53:51;97393.31;;;15.46;43.91
21869;BME280;11099;41.564;23.296;2023-04-27T08:56:21;97409.63;;;15.66;45.25
21869;BME280;11099;41.564;23.296;2023-04-27T08:58:51;97414.69;;;15.31;45.46
21869;BME280;11099;41.564;23.296;2023-04-27T09:01:17;97457.78;;;16.02;46.11
21869;BME280;11099;41.564;23.296;2023-04-27T09:03:44;97401.44;;;15.10;45.35
21869;BME280;11099;41.564;23.296;2023-04-27T09:06:14;97340.31;;;14.63;44.12
21869;BME280;11099;41.564;23.296;2023-04-27T09:08:48;97463.94;;;15.63;44.62
21869;BME280;11099;41.564;23.296;2023-04-27T09:11:27;97455.31;;;15.97;44.18
21869;BME280;11099;41.564;23.296;2023-04-27T09:13:53;97393.50;;;15.53;44.38
21869;BME280;11099;41.564;23.296;2023-04-27T09:16:23;97461.06;;;16.40;46.32
21869;BME280;11099;41.564;23.296;2023-04-27T09:18:49;97445.03;;;16.43;45.02
21869;BME280;11099;41.564;23.296;2023-04-27T09:21:26;97446.41;;;16.37;43.89
21869;BME280;11099;41.564;23.296;2023-04-27T09:23:52;97382.13;;;15.85;43.40
21869;BME280;11099;41.564;23.296;2023-04-27T09:26:22;97436.09;;;15.67;43.82
21869;BME280;11099;41.564;23.296;2023-04-27T09:28:50;97433.91;;;16.29;43.72
21869;BME280;11099;41.564;23.296;2023-04-27T09:31:17;97443.91;;;16.00;43.76
21869;BME280;11099;41.564;23.296;2023-04-27T09:33:44;97382.09;;;15.57;45.29
21869;BME280;11099;41.564;23.296;2023-04-27T09:36:10;97423.22;;;16.01;43.40
21869;BME280;11099;41.564;23.296;2023-04-27T09:38:36;97360.19;;;15.54;44.42
21869;BME280;11099;41.564;23.296;2023-04-27T09:41:01;97428.41;;;15.94;44.01
21869;BME280;11099;41.564;23.296;2023-04-27T09:43:28;97385.97;;;15.31;44.71
21869;BME280;11099;41.564;23.296;2023-04-27T09:45:55;97324.00;;;15.20;43.68
21869;BME280;11099;41.564;23.296;2023-04-27T09:48:22;97297.22;;;15.36;44.72
21869;BME280;11099;41.564;23.296;2023-04-27T09:50:50;97384.78;;;16.28;43.68
21869;BME280;11099;41.564;23.296;2023-04-27T09:58:54;97405.78;;;16.39;44.83
21869;BME280;11099;41.564;23.296;2023-04-27T10:06:57;97287.19;;;15.61;42.45
21869;BME280;11099;41.564;23.296;2023-04-27T10:09:23;97269.81;;;15.43;42.18
21869;BME280;11099;41.564;23.296;2023-04-27T10:11:51;97391.31;;;16.43;42.57
21869;BME280;11099;41.564;23.296;2023-04-27T10:14:19;97360.91;;;16.71;41.67
21869;BME280;11099;41.564;23.296;2023-04-27T10:16:52;97394.78;;;16.44;43.51
21869;BME280;11099;41.564;23.296;2023-04-27T10:19:19;97338.09;;;16.01;41.51
21869;BME280;11099;41.564;23.296;2023-04-27T10:21:55;97391.91;;;16.52;41.36
21869;BME280;11099;41.564;23.296;2023-04-27T10:24:40;97332.53;;;16.42;41.91
21869;BME280;11099;41.564;23.296;2023-04-27T10:27:09;97354.28;;;16.52;41.93
21869;BME280;11099;41.564;23.296;2023-04-27T10:29:40;97361.25;;;16.38;43.39
21869;BME280;11099;41.564;23.296;2023-04-27T10:32:12;97347.19;;;16.76;40.72
21869;BME280;11099;41.564;23.296;2023-04-27T10:34:38;97395.00;;;17.02;41.71
21869;BME280;11099;41.564;23.296;2023-04-27T10:37:09;97268.44;;;16.08;41.32
21869;BME280;11099;41.564;23.296;2023-04-27T10:39:40;97385.59;;;16.76;42.30
21869;BME280;11099;41.564;23.296;2023-04-27T10:42:06;97362.66;;;16.98;42.45
21869;BME280;11099;41.564;23.296;2023-04-27T10:44:35;97368.19;;;17.05;39.58
21869;BME280;11099;41.564;23.296;2023-04-27T10:47:15;97315.00;;;17.15;39.76
21869;BME280;11099;41.564;23.296;2023-04-27T10:49:41;97274.97;;;16.94;40.18
21869;BME280;11099;41.564;23.296;2023-04-27T10:52:07;97363.50;;;17.76;40.36
21869;BME280;11099;41.564;23.296;2023-04-27T10:54:34;97387.97;;;18.33;40.43
21869;BME280;11099;41.564;23.296;2023-04-27T10:57:04;97365.00;;;18.16;38.74
21869;BME280;11099;41.564;23.296;2023-04-27T10:59:29;97285.22;;;17.46;38.88
21869;BME280;11099;41.564;23.296;2023-04-27T11:01:56;97279.88;;;17.27;38.39
21869;BME280;11099;41.564;23.296;2023-04-27T11:04:22;97302.63;;;17.91;38.45
21869;BME280;11099;41.564;23.296;2023-04-27T11:06:48;97275.03;;;16.97;39.02
21869;BME280;11099;41.564;23.296;2023-04-27T11:09:24;97237.13;;;16.83;38.33
21869;BME280;11099;41.564;23.296;2023-04-27T11:11:51;97285.38;;;17.34;38.38
21869;BME280;11099;41.564;23.296;2023-04-27T11:14:20;97372.69;;;17.95;37.38
21869;BME280;11099;41.564;23.296;2023-04-27T11:16:47;97370.44;;;17.97;38.30
21869;BME280;11099;41.564;23.296;2023-04-27T11:19:13;97339.84;;;17.27;37.76
21869;BME280;11099;41.564;23.296;2023-04-27T11:21:40;97304.56;;;17.52;37.81
21869;BME280;11099;41.564;23.296;2023-04-27T11:24:07;97344.81;;;18.06;36.71
21869;BME280;11099;41.564;23.296;2023-04-27T11:26:33;97354.84;;;17.48;38.11
21869;BME280;11099;41.564;23.296;2023-04-27T11:29:01;97318.88;;;17.36;37.72
21869;BME280;11099;41.564;23.296;2023-04-27T11:31:49;97282.25;;;16.58;38.09
21869;BME280;11099;41.564;23.296;2023-04-27T11:34:25;97325.38;;;16.81;37.14
21869;BME280;11099;41.564;23.296;2023-04-27T11:37:01;97327.53;;;16.91;36.55
21869;BME280;11099;41.564;23.296;2023-04-27T11:39:31;97347.75;;;17.39;35.83
21869;BME280;11099;41.564;23.296;2023-04-27T11:42:15;97360.81;;;17.37;35.95
21869;BME280;11099;41.564;23.296;2023-04-27T11:44:42;97280.72;;;17.11;36.48
21869;BME280;11099;41.564;23.296;2023-04-27T11:47:17;97277.75;;;17.17;34.23
21869;BME280;11099;41.564;23.296;2023-04-27T11:49:51;97345.91;;;17.82;35.55
21869;BME280;11099;41.564;23.296;2023-04-27T11:52:17;97351.78;;;17.69;35.09
21869;BME280;11099;41.564;23.296;2023-04-27T11:54:51;97359.38;;;17.82;36.93
21869;BME280;11099;41.564;23.296;2023-04-27T11:57:23;97363.84;;;17.55;36.14
21869;BME280;11099;41.564;23.296;2023-04-27T11:59:50;97316.03;;;17.49;35.76
21869;BME280;11099;41.564;23.296;2023-04-27T12:02:16;97258.22;;;17.20;36.54
21869;BME280;11099;41.564;23.296;2023-04-27T12:04:41;97326.84;;;17.52;35.86
21869;BME280;11099;41.564;23.296;2023-04-27T12:07:07;97263.00;;;16.91;35.96
21869;BME280;11099;41.564;23.296;2023-04-27T12:09:33;97346.75;;;17.67;35.32
21869;BME280;11099;41.564;23.296;2023-04-27T12:11:58;97327.28;;;17.74;37.16
21869;BME280;11099;41.564;23.296;2023-04-27T12:14:24;97324.47;;;17.28;34.65
21869;BME280;11099;41.564;23.296;2023-04-27T12:16:50;97358.63;;;17.08;34.88
21869;BME280;11099;41.564;23.296;2023-04-27T12:19:16;97184.13;;;16.29;35.66
21869;BME280;11099;41.564;23.296;2023-04-27T12:21:41;97309.72;;;16.83;35.70
21869;BME280;11099;41.564;23.296;2023-04-27T12:24:07;97369.84;;;17.10;36.97
21869;BME280;11099;41.564;23.296;2023-04-27T12:26:32;97361.22;;;17.20;35.67
21869;BME280;11099;41.564;23.296;2023-04-27T12:28:58;97353.84;;;17.56;35.40
21869;BME280;11099;41.564;23.296;2023-04-27T12:31:24;97199.94;;;16.69;34.94
21869;BME280;11099;41.564;23.296;2023-04-27T12:33:50;97294.22;;;16.96;34.60
21869;BME280;11099;41.564;23.296;2023-04-27T12:36:16;97331.69;;;17.24;35.40
21869;BME280;11099;41.564;23.296;2023-04-27T12:38:42;97315.88;;;17.03;35.04
21869;BME280;11099;41.564;23.296;2023-04-27T12:41:07;97268.47;;;16.95;35.42
21869;BME280;11099;41.564;23.296;2023-04-27T12:43:34;97358.59;;;17.62;34.86
21869;BME280;11099;41.564;23.296;2023-04-27T12:46:02;97232.97;;;16.70;34.23
21869;BME280;11099;41.564;23.296;2023-04-27T12:48:28;97267.00;;;17.17;35.75
21869;BME280;11099;41.564;23.296;2023-04-27T12:50:55;97352.41;;;18.01;33.87
21869;BME280;11099;41.564;23.296;2023-04-27T12:53:22;97310.44;;;17.77;35.06
21869;BME280;11099;41.564;23.296;2023-04-27T12:55:48;97289.75;;;17.61;34.54
21869;BME280;11099;41.564;23.296;2023-04-27T12:58:14;97350.78;;;18.42;34.07
21869;BME280;11099;41.564;23.296;2023-04-27T13:00:40;97284.00;;;17.63;34.38